sensor_id;sensor_type;location;lat;lon;timestamp;P1;durP1;ratioP1;P2;durP2;ratioP2
6651;SDS011;3362;50.892;10.692;2022-12-01T00:00:38;19.02;;;8.18;;
6651;SDS011;3362;50.892;10.692;2022-12-01T00:03:05;21.45;;;9.07;;
6651;SDS011;3362;50.892;10.692;2022-12-01T00:05:32;18.92;;;7.93;;
6651;SDS011;3362;50.892;10.692;2022-12-01T00:07:58;18.65;;;9.05;;
6651;SDS011;3362;50.892;10.692;2022-12-01T00:10:25;17.70;;;7.75;;
6651;SDS011;3362;50.892;10.692;2022-12-01T00:12:50;21.55;;;9.23;;
6651;SDS011;3362;50.892;10.692;2022-12-01T00:15:16;20.70;;;8.57;;
6651;SDS011;3362;50.892;10.692;2022-12-01T00:17:43;21.00;;;9.00;;
6651;SDS011;3362;50.892;10.692;2022-12-01T00:20:10;22.08;;;8.65;;
6651;SDS011;3362;50.892;10.692;2022-12-01T00:22:37;21.42;;;8.88;;
6651;SDS011;3362;50.892;10.692;2022-12-01T00:25:06;17.80;;;8.73;;
6651;SDS011;3362;50.892;10.692;2022-12-01T00:27:33;22.75;;;9.55;;
6651;SDS011;3362;50.892;10.692;2022-12-01T00:29:59;17.10;;;8.55;;
6651;SDS011;3362;50.892;10.692;2022-12-01T00:32:25;20.48;;;9.20;;
6651;SDS011;3362;50.892;10.692;2022-12-01T00:34:52;20.30;;;9.48;;
6651;SDS011;3362;50.892;10.692;2022-12-01T00:37:18;17.98;;;8.70;;
6651;SDS011;3362;50.892;10.692;2022-12-01T00:39:46;18.58;;;8.35;;
6651;SDS011;3362;50.892;10.692;2022-12-01T00:42:12;20.30;;;9.82;;
6651;SDS011;3362;50.892;10.692;2022-12-01T00:44:38;19.42;;;8.95;;
6651;SDS011;3362;50.892;10.692;2022-12-01T00:47:04;18.45;;;8.38;;
6651;SDS011;3362;50.892;10.692;2022-12-01T00:49:31;18.02;;;7.18;;
6651;SDS011;3362;50.892;10.692;2022-12-01T00:51:57;16.40;;;7.60;;
6651;SDS011;3362;50.892;10.692;2022-12-01T00:54:23;17.10;;;7.55;;
6651;SDS011;3362;50.892;10.692;2022-12-01T00:56:51;15.10;;;7.70;;
6651;SDS011;3362;50.892;10.692;2022-12-01T00:59:17;14.93;;;7.93;;
6651;SDS011;3362;50.892;10.692;2022-12-01T01:01:43;19.48;;;8.20;;
6651;SDS011;3362;50.892;10.692;2022-12-01T01:04:10;19.05;;;8.30;;
6651;SDS011;3362;50.892;10.692;2022-12-01T01:06:36;17.58;;;8.35;;
6651;SDS011;3362;50.892;10.692;2022-12-01T01:09:03;15.35;;;7.20;;
6651;SDS011;3362;50.892;10.692;2022-12-01T01:11:29;14.43;;;7.68;;
6651;SDS011;3362;50.892;10.692;2022-12-01T01:13:58;17.95;;;8.15;;
6651;SDS011;3362;50.892;10.692;2022-12-01T01:16:24;15.77;;;7.53;;
6651;SDS011;3362;50.892;10.692;2022-12-01T01:18:50;15.07;;;7.78;;
6651;SDS011;3362;50.892;10.692;2022-12-01T01:21:17;15.48;;;7.15;;
6651;SDS011;3362;50.892;10.692;2022-12-01T01:23:45;16.58;;;8.05;;
6651;SDS011;3362;50.892;10.692;2022-12-01T01:26:13;16.52;;;7.75;;
6651;SDS011;3362;50.892;10.692;2022-12-01T01:28:39;19.65;;;9.68;;
6651;SDS011;3362;50.892;10.692;2022-12-01T01:31:08;18.52;;;8.27;;
6651;SDS011;3362;50.892;10.692;2022-12-01T01:33:34;22.33;;;9.27;;
6651;SDS011;3362;50.892;10.692;2022-12-01T01:36:01;19.90;;;9.43;;
6651;SDS011;3362;50.892;10.692;2022-12-01T01:38:27;19.48;;;8.90;;
6651;SDS011;3362;50.892;10.692;2022-12-01T01:40:54;19.45;;;8.85;;
6651;SDS011;3362;50.892;10.692;2022-12-01T01:43:36;18.95;;;8.55;;
6651;SDS011;3362;50.892;10.692;2022-12-01T01:46:04;19.65;;;9.13;;
6651;SDS011;3362;50.892;10.692;2022-12-01T01:48:31;19.50;;;8.93;;
6651;SDS011;3362;50.892;10.692;2022-12-01T01:50:58;21.50;;;9.45;;
6651;SDS011;3362;50.892;10.692;2022-12-01T01:53:25;19.58;;;9.13;;
6651;SDS011;3362;50.892;10.692;2022-12-01T01:55:51;19.15;;;9.07;;
6651;SDS011;3362;50.892;10.692;2022-12-01T01:58:18;20.17;;;9.77;;
6651;SDS011;3362;50.892;10.692;2022-12-01T02:00:44;25.85;;;11.55;;
6651;SDS011;3362;50.892;10.692;2022-12-01T02:03:12;27.15;;;10.38;;
6651;SDS011;3362;50.892;10.692;2022-12-01T02:05:41;25.52;;;10.90;;
6651;SDS011;3362;50.892;10.692;2022-12-01T02:08:08;24.75;;;12.25;;
6651;SDS011;3362;50.892;10.692;2022-12-01T02:10:37;27.98;;;12.60;;
6651;SDS011;3362;50.892;10.692;2022-12-01T02:13:10;33.13;;;12.00;;
6651;SDS011;3362;50.892;10.692;2022-12-01T02:15:42;24.40;;;11.65;;
6651;SDS011;3362;50.892;10.692;2022-12-01T02:18:14;24.23;;;11.70;;
6651;SDS011;3362;50.892;10.692;2022-12-01T02:20:58;30.17;;;13.77;;
6651;SDS011;3362;50.892;10.692;2022-12-01T02:23:31;26.30;;;13.57;;
6651;SDS011;3362;50.892;10.692;2022-12-01T02:26:05;27.25;;;13.25;;
6651;SDS011;3362;50.892;10.692;2022-12-01T02:28:45;32.25;;;13.45;;
6651;SDS011;3362;50.892;10.692;2022-12-01T02:31:14;32.15;;;15.30;;
6651;SDS011;3362;50.892;10.692;2022-12-01T02:33:42;31.85;;;13.35;;
6651;SDS011;3362;50.892;10.692;2022-12-01T02:36:14;33.78;;;15.80;;
6651;SDS011;3362;50.892;10.692;2022-12-01T02:38:43;36.05;;;15.57;;
6651;SDS011;3362;50.892;10.692;2022-12-01T02:41:12;40.75;;;16.38;;
6651;SDS011;3362;50.892;10.692;2022-12-01T02:43:44;34.08;;;15.15;;
6651;SDS011;3362;50.892;10.692;2022-12-01T02:46:13;40.38;;;16.42;;
6651;SDS011;3362;50.892;10.692;2022-12-01T02:48:42;36.75;;;16.40;;
6651;SDS011;3362;50.892;10.692;2022-12-01T02:51:10;35.67;;;15.07;;
6651;SDS011;3362;50.892;10.692;2022-12-01T02:53:37;38.38;;;17.20;;
6651;SDS011;3362;50.892;10.692;2022-12-01T02:56:05;38.35;;;16.20;;
6651;SDS011;3362;50.892;10.692;2022-12-01T02:58:31;36.25;;;16.50;;
6651;SDS011;3362;50.892;10.692;2022-12-01T03:01:12;35.58;;;15.70;;
6651;SDS011;3362;50.892;10.692;2022-12-01T03:06:38;35.58;;;15.73;;
6651;SDS011;3362;50.892;10.692;2022-12-01T03:09:08;39.45;;;16.58;;
6651;SDS011;3362;50.892;10.692;2022-12-01T03:11:40;36.97;;;16.00;;
6651;SDS011;3362;50.892;10.692;2022-12-01T03:14:12;44.13;;;17.65;;
6651;SDS011;3362;50.892;10.692;2022-12-01T03:16:44;40.30;;;16.77;;
6651;SDS011;3362;50.892;10.692;2022-12-01T03:19:13;44.15;;;16.95;;
6651;SDS011;3362;50.892;10.692;2022-12-01T03:21:43;49.35;;;18.20;;
6651;SDS011;3362;50.892;10.692;2022-12-01T03:24:11;44.28;;;17.83;;
6651;SDS011;3362;50.892;10.692;2022-12-01T03:26:39;43.83;;;17.27;;
6651;SDS011;3362;50.892;10.692;2022-12-01T03:29:07;43.63;;;18.25;;
6651;SDS011;3362;50.892;10.692;2022-12-01T03:31:36;45.75;;;18.42;;
6651;SDS011;3362;50.892;10.692;2022-12-01T03:34:05;48.97;;;20.15;;
6651;SDS011;3362;50.892;10.692;2022-12-01T03:36:35;43.67;;;19.38;;
6651;SDS011;3362;50.892;10.692;2022-12-01T03:39:06;44.65;;;18.05;;
6651;SDS011;3362;50.892;10.692;2022-12-01T03:41:34;42.33;;;17.65;;
6651;SDS011;3362;50.892;10.692;2022-12-01T03:44:02;42.10;;;18.23;;
6651;SDS011;3362;50.892;10.692;2022-12-01T03:46:32;44.10;;;18.85;;
6651;SDS011;3362;50.892;10.692;2022-12-01T03:49:00;39.20;;;17.67;;
6651;SDS011;3362;50.892;10.692;2022-12-01T03:51:29;40.15;;;16.27;;
6651;SDS011;3362;50.892;10.692;2022-12-01T03:53:58;41.25;;;16.63;;
6651;SDS011;3362;50.892;10.692;2022-12-01T03:56:31;43.60;;;17.27;;
6651;SDS011;3362;50.892;10.692;2022-12-01T03:58:59;41.38;;;18.35;;
6651;SDS011;3362;50.892;10.692;2022-12-01T04:01:28;41.72;;;17.40;;
6651;SDS011;3362;50.892;10.692;2022-12-01T04:03:59;37.90;;;16.77;;
6651;SDS011;3362;50.892;10.692;2022-12-01T04:06:27;46.97;;;19.20;;
6651;SDS011;3362;50.892;10.692;2022-12-01T04:08:54;35.28;;;16.15;;
6651;SDS011;3362;50.892;10.692;2022-12-01T04:11:20;41.80;;;17.63;;
6651;SDS011;3362;50.892;10.692;2022-12-01T04:14:05;41.97;;;17.85;;
6651;SDS011;3362;50.892;10.692;2022-12-01T04:16:31;40.17;;;17.77;;
6651;SDS011;3362;50.892;10.692;2022-12-01T04:18:57;34.38;;;15.93;;
6651;SDS011;3362;50.892;10.692;2022-12-01T04:21:24;36.80;;;16.23;;
6651;SDS011;3362;50.892;10.692;2022-12-01T04:23:50;44.67;;;17.73;;
6651;SDS011;3362;50.892;10.692;2022-12-01T04:26:25;39.28;;;17.30;;
6651;SDS011;3362;50.892;10.692;2022-12-01T04:28:52;40.85;;;15.90;;
6651;SDS011;3362;50.892;10.692;2022-12-01T04:31:19;39.63;;;16.17;;
6651;SDS011;3362;50.892;10.692;2022-12-01T04:33:46;39.25;;;16.70;;
6651;SDS011;3362;50.892;10.692;2022-12-01T04:36:12;42.85;;;17.40;;
6651;SDS011;3362;50.892;10.692;2022-12-01T04:38:38;38.13;;;16.27;;
6651;SDS011;3362;50.892;10.692;2022-12-01T04:41:07;42.25;;;17.35;;
6651;SDS011;3362;50.892;10.692;2022-12-01T04:43:33;48.75;;;16.63;;
6651;SDS011;3362;50.892;10.692;2022-12-01T04:45:59;44.42;;;17.42;;
6651;SDS011;3362;50.892;10.692;2022-12-01T04:48:27;43.47;;;16.40;;
6651;SDS011;3362;50.892;10.692;2022-12-01T04:50:53;43.47;;;16.15;;
6651;SDS011;3362;50.892;10.692;2022-12-01T04:53:19;40.10;;;15.98;;
6651;SDS011;3362;50.892;10.692;2022-12-01T04:55:46;43.05;;;16.33;;
6651;SDS011;3362;50.892;10.692;2022-12-01T04:58:12;40.90;;;16.40;;
6651;SDS011;3362;50.892;10.692;2022-12-01T05:00:38;46.22;;;18.52;;
6651;SDS011;3362;50.892;10.692;2022-12-01T05:03:04;47.38;;;16.90;;
6651;SDS011;3362;50.892;10.692;2022-12-01T05:05:32;45.33;;;19.77;;
6651;SDS011;3362;50.892;10.692;2022-12-01T05:07:58;41.00;;;17.77;;
6651;SDS011;3362;50.892;10.692;2022-12-01T05:10:25;43.25;;;17.48;;
6651;SDS011;3362;50.892;10.692;2022-12-01T05:12:51;49.28;;;18.48;;
6651;SDS011;3362;50.892;10.692;2022-12-01T05:15:17;46.55;;;18.42;;
6651;SDS011;3362;50.892;10.692;2022-12-01T05:17:43;42.92;;;17.45;;
6651;SDS011;3362;50.892;10.692;2022-12-01T05:20:10;49.15;;;18.67;;
6651;SDS011;3362;50.892;10.692;2022-12-01T05:22:58;54.42;;;21.23;;
6651;SDS011;3362;50.892;10.692;2022-12-01T05:25:24;53.20;;;19.42;;
6651;SDS011;3362;50.892;10.692;2022-12-01T05:27:51;48.70;;;18.30;;
6651;SDS011;3362;50.892;10.692;2022-12-01T05:30:17;43.33;;;17.05;;
6651;SDS011;3362;50.892;10.692;2022-12-01T05:32:43;54.05;;;19.23;;
6651;SDS011;3362;50.892;10.692;2022-12-01T05:35:09;62.92;;;21.17;;
6651;SDS011;3362;50.892;10.692;2022-12-01T05:37:36;59.92;;;19.27;;
6651;SDS011;3362;50.892;10.692;2022-12-01T05:40:05;47.60;;;18.88;;
6651;SDS011;3362;50.892;10.692;2022-12-01T05:42:31;53.90;;;20.23;;
6651;SDS011;3362;50.892;10.692;2022-12-01T05:44:58;55.65;;;20.05;;
6651;SDS011;3362;50.892;10.692;2022-12-01T05:47:24;54.53;;;21.10;;
6651;SDS011;3362;50.892;10.692;2022-12-01T05:49:51;54.47;;;18.70;;
6651;SDS011;3362;50.892;10.692;2022-12-01T05:52:17;56.50;;;21.58;;
6651;SDS011;3362;50.892;10.692;2022-12-01T05:54:43;53.63;;;19.20;;
6651;SDS011;3362;50.892;10.692;2022-12-01T05:57:11;56.38;;;20.85;;
6651;SDS011;3362;50.892;10.692;2022-12-01T05:59:37;55.13;;;20.05;;
6651;SDS011;3362;50.892;10.692;2022-12-01T06:02:03;46.20;;;18.08;;
6651;SDS011;3362;50.892;10.692;2022-12-01T06:04:29;54.13;;;18.40;;
6651;SDS011;3362;50.892;10.692;2022-12-01T06:06:56;66.07;;;21.63;;
6651;SDS011;3362;50.892;10.692;2022-12-01T06:09:22;54.70;;;20.55;;
6651;SDS011;3362;50.892;10.692;2022-12-01T06:11:48;64.60;;;21.33;;
6651;SDS011;3362;50.892;10.692;2022-12-01T06:14:16;76.10;;;21.13;;
6651;SDS011;3362;50.892;10.692;2022-12-01T06:16:42;52.30;;;19.63;;
6651;SDS011;3362;50.892;10.692;2022-12-01T06:19:08;56.45;;;20.52;;
6651;SDS011;3362;50.892;10.692;2022-12-01T06:21:35;58.92;;;18.33;;
6651;SDS011;3362;50.892;10.692;2022-12-01T06:24:01;67.65;;;23.58;;
6651;SDS011;3362;50.892;10.692;2022-12-01T06:26:27;61.20;;;20.80;;
6651;SDS011;3362;50.892;10.692;2022-12-01T06:28:54;61.65;;;20.67;;
6651;SDS011;3362;50.892;10.692;2022-12-01T06:31:22;68.65;;;23.23;;
6651;SDS011;3362;50.892;10.692;2022-12-01T06:33:48;60.05;;;22.52;;
6651;SDS011;3362;50.892;10.692;2022-12-01T06:36:15;66.15;;;23.08;;
6651;SDS011;3362;50.892;10.692;2022-12-01T06:38:41;64.40;;;23.50;;
6651;SDS011;3362;50.892;10.692;2022-12-01T06:41:07;72.53;;;22.75;;
6651;SDS011;3362;50.892;10.692;2022-12-01T06:43:34;61.42;;;22.98;;
6651;SDS011;3362;50.892;10.692;2022-12-01T06:46:01;64.18;;;22.58;;
6651;SDS011;3362;50.892;10.692;2022-12-01T06:48:28;73.30;;;23.40;;
6651;SDS011;3362;50.892;10.692;2022-12-01T06:50:55;70.80;;;24.95;;
6651;SDS011;3362;50.892;10.692;2022-12-01T06:53:22;73.53;;;22.50;;
6651;SDS011;3362;50.892;10.692;2022-12-01T06:55:48;69.57;;;23.58;;
6651;SDS011;3362;50.892;10.692;2022-12-01T06:58:14;74.63;;;24.55;;
6651;SDS011;3362;50.892;10.692;2022-12-01T07:00:41;57.30;;;22.35;;
6651;SDS011;3362;50.892;10.692;2022-12-01T07:03:07;62.40;;;22.98;;
6651;SDS011;3362;50.892;10.692;2022-12-01T07:05:34;70.60;;;22.05;;
6651;SDS011;3362;50.892;10.692;2022-12-01T07:08:01;71.57;;;22.92;;
6651;SDS011;3362;50.892;10.692;2022-12-01T07:10:27;80.75;;;25.10;;
6651;SDS011;3362;50.892;10.692;2022-12-01T07:12:54;75.95;;;23.50;;
6651;SDS011;3362;50.892;10.692;2022-12-01T07:15:21;83.18;;;25.02;;
6651;SDS011;3362;50.892;10.692;2022-12-01T07:17:47;71.60;;;23.23;;
6651;SDS011;3362;50.892;10.692;2022-12-01T07:20:13;58.85;;;19.15;;
6651;SDS011;3362;50.892;10.692;2022-12-01T07:22:41;74.63;;;22.45;;
6651;SDS011;3362;50.892;10.692;2022-12-01T07:25:08;68.03;;;22.27;;
6651;SDS011;3362;50.892;10.692;2022-12-01T07:27:34;62.00;;;21.60;;
6651;SDS011;3362;50.892;10.692;2022-12-01T07:30:00;64.57;;;23.08;;
6651;SDS011;3362;50.892;10.692;2022-12-01T07:32:26;61.92;;;21.80;;
6651;SDS011;3362;50.892;10.692;2022-12-01T07:34:53;66.40;;;20.98;;
6651;SDS011;3362;50.892;10.692;2022-12-01T07:37:19;54.85;;;19.98;;
6651;SDS011;3362;50.892;10.692;2022-12-01T07:39:46;58.90;;;21.02;;
6651;SDS011;3362;50.892;10.692;2022-12-01T07:42:13;55.97;;;21.98;;
6651;SDS011;3362;50.892;10.692;2022-12-01T07:44:39;54.40;;;21.10;;
6651;SDS011;3362;50.892;10.692;2022-12-01T07:47:05;51.40;;;20.15;;
6651;SDS011;3362;50.892;10.692;2022-12-01T07:49:31;57.72;;;21.38;;
6651;SDS011;3362;50.892;10.692;2022-12-01T07:51:58;60.55;;;22.33;;
6651;SDS011;3362;50.892;10.692;2022-12-01T07:54:24;66.03;;;21.80;;
6651;SDS011;3362;50.892;10.692;2022-12-01T07:56:52;60.58;;;21.23;;
6651;SDS011;3362;50.892;10.692;2022-12-01T07:59:18;64.22;;;20.98;;
6651;SDS011;3362;50.892;10.692;2022-12-01T08:01:44;59.10;;;22.77;;
6651;SDS011;3362;50.892;10.692;2022-12-01T08:04:11;61.83;;;22.95;;
6651;SDS011;3362;50.892;10.692;2022-12-01T08:06:37;67.65;;;22.45;;
6651;SDS011;3362;50.892;10.692;2022-12-01T08:09:04;52.45;;;19.27;;
6651;SDS011;3362;50.892;10.692;2022-12-01T08:11:30;57.60;;;20.77;;
6651;SDS011;3362;50.892;10.692;2022-12-01T08:13:57;53.50;;;20.25;;
6651;SDS011;3362;50.892;10.692;2022-12-01T08:16:24;55.45;;;19.05;;
6651;SDS011;3362;50.892;10.692;2022-12-01T08:18:50;61.30;;;20.30;;
6651;SDS011;3362;50.892;10.692;2022-12-01T08:21:17;53.22;;;19.98;;
6651;SDS011;3362;50.892;10.692;2022-12-01T08:23:44;64.03;;;22.00;;
6651;SDS011;3362;50.892;10.692;2022-12-01T08:26:12;65.75;;;23.58;;
6651;SDS011;3362;50.892;10.692;2022-12-01T08:28:39;48.65;;;18.90;;
6651;SDS011;3362;50.892;10.692;2022-12-01T08:31:07;46.97;;;18.38;;
6651;SDS011;3362;50.892;10.692;2022-12-01T08:33:34;51.00;;;19.00;;
6651;SDS011;3362;50.892;10.692;2022-12-01T08:36:00;42.92;;;17.98;;
6651;SDS011;3362;50.892;10.692;2022-12-01T08:38:26;52.33;;;20.33;;
6651;SDS011;3362;50.892;10.692;2022-12-01T08:40:52;52.58;;;17.55;;
6651;SDS011;3362;50.892;10.692;2022-12-01T08:43:21;55.47;;;19.77;;
6651;SDS011;3362;50.892;10.692;2022-12-01T08:45:47;58.88;;;18.40;;
6651;SDS011;3362;50.892;10.692;2022-12-01T08:48:14;50.33;;;18.73;;
6651;SDS011;3362;50.892;10.692;2022-12-01T08:50:41;45.70;;;18.83;;
6651;SDS011;3362;50.892;10.692;2022-12-01T08:53:07;55.40;;;17.45;;
6651;SDS011;3362;50.892;10.692;2022-12-01T08:55:33;60.60;;;20.48;;
6651;SDS011;3362;50.892;10.692;2022-12-01T08:57:59;58.65;;;20.02;;
6651;SDS011;3362;50.892;10.692;2022-12-01T09:00:26;49.47;;;18.63;;
6651;SDS011;3362;50.892;10.692;2022-12-01T09:02:53;58.05;;;20.83;;
6651;SDS011;3362;50.892;10.692;2022-12-01T09:05:20;61.30;;;21.00;;
6651;SDS011;3362;50.892;10.692;2022-12-01T09:07:47;66.43;;;21.65;;
6651;SDS011;3362;50.892;10.692;2022-12-01T09:10:33;70.00;;;22.15;;
6651;SDS011;3362;50.892;10.692;2022-12-01T09:12:59;58.60;;;19.30;;
6651;SDS011;3362;50.892;10.692;2022-12-01T09:15:26;74.85;;;21.42;;
6651;SDS011;3362;50.892;10.692;2022-12-01T09:17:52;68.50;;;22.33;;
6651;SDS011;3362;50.892;10.692;2022-12-01T09:20:19;68.57;;;20.95;;
6651;SDS011;3362;50.892;10.692;2022-12-01T09:22:46;62.33;;;21.52;;
6651;SDS011;3362;50.892;10.692;2022-12-01T09:25:12;73.10;;;22.52;;
6651;SDS011;3362;50.892;10.692;2022-12-01T09:27:39;71.07;;;21.42;;
6651;SDS011;3362;50.892;10.692;2022-12-01T09:30:06;59.03;;;20.58;;
6651;SDS011;3362;50.892;10.692;2022-12-01T09:32:32;77.22;;;21.65;;
6651;SDS011;3362;50.892;10.692;2022-12-01T09:34:59;75.63;;;21.45;;
6651;SDS011;3362;50.892;10.692;2022-12-01T09:37:25;57.65;;;19.67;;
6651;SDS011;3362;50.892;10.692;2022-12-01T09:39:52;66.28;;;20.58;;
6651;SDS011;3362;50.892;10.692;2022-12-01T09:42:19;65.25;;;20.13;;
6651;SDS011;3362;50.892;10.692;2022-12-01T09:44:51;59.53;;;19.38;;
6651;SDS011;3362;50.892;10.692;2022-12-01T09:47:18;67.07;;;20.70;;
6651;SDS011;3362;50.892;10.692;2022-12-01T09:49:49;77.88;;;22.95;;
6651;SDS011;3362;50.892;10.692;2022-12-01T09:52:18;72.32;;;20.85;;
6651;SDS011;3362;50.892;10.692;2022-12-01T09:54:45;63.28;;;20.30;;
6651;SDS011;3362;50.892;10.692;2022-12-01T09:57:15;68.15;;;21.83;;
6651;SDS011;3362;50.892;10.692;2022-12-01T09:59:42;66.35;;;22.40;;
6651;SDS011;3362;50.892;10.692;2022-12-01T10:02:13;63.53;;;20.60;;
6651;SDS011;3362;50.892;10.692;2022-12-01T10:04:45;61.50;;;19.48;;
6651;SDS011;3362;50.892;10.692;2022-12-01T10:07:16;56.53;;;18.83;;
6651;SDS011;3362;50.892;10.692;2022-12-01T10:09:46;72.47;;;20.73;;
6651;SDS011;3362;50.892;10.692;2022-12-01T10:12:17;53.83;;;20.20;;
6651;SDS011;3362;50.892;10.692;2022-12-01T10:14:44;60.28;;;21.05;;
6651;SDS011;3362;50.892;10.692;2022-12-01T10:17:14;71.03;;;19.90;;
6651;SDS011;3362;50.892;10.692;2022-12-01T10:19:45;71.85;;;21.65;;
6651;SDS011;3362;50.892;10.692;2022-12-01T10:22:26;62.15;;;19.45;;
6651;SDS011;3362;50.892;10.692;2022-12-01T10:24:57;67.13;;;20.10;;
6651;SDS011;3362;50.892;10.692;2022-12-01T10:27:30;59.08;;;18.30;;
6651;SDS011;3362;50.892;10.692;2022-12-01T10:30:00;59.38;;;17.65;;
6651;SDS011;3362;50.892;10.692;2022-12-01T10:32:29;67.72;;;18.33;;
6651;SDS011;3362;50.892;10.692;2022-12-01T10:35:00;53.35;;;18.42;;
6651;SDS011;3362;50.892;10.692;2022-12-01T10:37:27;54.85;;;18.58;;
6651;SDS011;3362;50.892;10.692;2022-12-01T10:39:54;60.85;;;19.73;;
6651;SDS011;3362;50.892;10.692;2022-12-01T10:42:25;64.82;;;19.73;;
6651;SDS011;3362;50.892;10.692;2022-12-01T10:44:54;62.05;;;19.30;;
6651;SDS011;3362;50.892;10.692;2022-12-01T10:47:22;65.32;;;17.83;;
6651;SDS011;3362;50.892;10.692;2022-12-01T10:49:48;78.18;;;19.92;;
6651;SDS011;3362;50.892;10.692;2022-12-01T10:52:31;58.10;;;18.58;;
6651;SDS011;3362;50.892;10.692;2022-12-01T10:54:58;56.97;;;18.92;;
6651;SDS011;3362;50.892;10.692;2022-12-01T10:57:25;72.72;;;18.30;;
6651;SDS011;3362;50.892;10.692;2022-12-01T10:59:53;50.53;;;18.45;;
6651;SDS011;3362;50.892;10.692;2022-12-01T11:02:22;54.35;;;18.92;;
6651;SDS011;3362;50.892;10.692;2022-12-01T11:04:50;64.82;;;22.70;;
6651;SDS011;3362;50.892;10.692;2022-12-01T11:07:18;61.30;;;22.45;;
6651;SDS011;3362;50.892;10.692;2022-12-01T11:09:45;70.35;;;23.38;;
6651;SDS011;3362;50.892;10.692;2022-12-01T11:12:14;53.55;;;21.13;;
6651;SDS011;3362;50.892;10.692;2022-12-01T11:14:42;48.78;;;17.60;;
6651;SDS011;3362;50.892;10.692;2022-12-01T11:17:13;59.00;;;17.83;;
6651;SDS011;3362;50.892;10.692;2022-12-01T11:19:41;60.95;;;18.58;;
6651;SDS011;3362;50.892;10.692;2022-12-01T11:22:16;61.63;;;20.10;;
6651;SDS011;3362;50.892;10.692;2022-12-01T11:24:45;52.00;;;17.95;;
6651;SDS011;3362;50.892;10.692;2022-12-01T11:27:21;54.20;;;17.52;;
6651;SDS011;3362;50.892;10.692;2022-12-01T11:29:48;45.33;;;15.48;;
6651;SDS011;3362;50.892;10.692;2022-12-01T11:32:16;54.65;;;17.02;;
6651;SDS011;3362;50.892;10.692;2022-12-01T11:34:48;41.38;;;15.38;;
6651;SDS011;3362;50.892;10.692;2022-12-01T11:37:16;52.40;;;16.35;;
6651;SDS011;3362;50.892;10.692;2022-12-01T11:39:43;64.93;;;17.77;;
6651;SDS011;3362;50.892;10.692;2022-12-01T11:42:14;52.03;;;16.98;;
6651;SDS011;3362;50.892;10.692;2022-12-01T11:44:46;41.92;;;14.52;;
6651;SDS011;3362;50.892;10.692;2022-12-01T11:47:14;56.33;;;17.67;;
6651;SDS011;3362;50.892;10.692;2022-12-01T11:49:41;57.03;;;17.25;;
6651;SDS011;3362;50.892;10.692;2022-12-01T11:52:16;49.03;;;15.98;;
6651;SDS011;3362;50.892;10.692;2022-12-01T11:54:53;47.58;;;17.38;;
6651;SDS011;3362;50.892;10.692;2022-12-01T11:57:19;51.33;;;16.80;;
6651;SDS011;3362;50.892;10.692;2022-12-01T11:59:45;58.70;;;16.83;;
6651;SDS011;3362;50.892;10.692;2022-12-01T12:02:18;54.92;;;17.17;;
6651;SDS011;3362;50.892;10.692;2022-12-01T12:04:50;61.03;;;16.73;;
6651;SDS011;3362;50.892;10.692;2022-12-01T12:07:23;56.75;;;18.10;;
6651;SDS011;3362;50.892;10.692;2022-12-01T12:09:55;54.95;;;17.08;;
6651;SDS011;3362;50.892;10.692;2022-12-01T12:12:27;55.40;;;17.10;;
6651;SDS011;3362;50.892;10.692;2022-12-01T12:14:58;51.70;;;19.17;;
6651;SDS011;3362;50.892;10.692;2022-12-01T12:17:31;61.70;;;18.58;;
6651;SDS011;3362;50.892;10.692;2022-12-01T12:20:19;60.97;;;17.58;;
6651;SDS011;3362;50.892;10.692;2022-12-01T12:22:50;44.60;;;15.73;;
6651;SDS011;3362;50.892;10.692;2022-12-01T12:25:21;47.75;;;15.65;;
6651;SDS011;3362;50.892;10.692;2022-12-01T12:27:51;43.15;;;16.00;;
6651;SDS011;3362;50.892;10.692;2022-12-01T12:30:23;50.63;;;17.25;;
6651;SDS011;3362;50.892;10.692;2022-12-01T12:33:03;58.08;;;19.15;;
6651;SDS011;3362;50.892;10.692;2022-12-01T12:35:35;45.53;;;15.77;;
6651;SDS011;3362;50.892;10.692;2022-12-01T12:38:12;48.40;;;16.73;;
6651;SDS011;3362;50.892;10.692;2022-12-01T12:40:40;47.72;;;16.23;;
6651;SDS011;3362;50.892;10.692;2022-12-01T12:45:51;48.72;;;16.98;;
6651;SDS011;3362;50.892;10.692;2022-12-01T12:48:22;42.80;;;15.90;;
6651;SDS011;3362;50.892;10.692;2022-12-01T12:50:50;54.22;;;17.02;;
6651;SDS011;3362;50.892;10.692;2022-12-01T12:53:21;47.55;;;15.68;;
6651;SDS011;3362;50.892;10.692;2022-12-01T12:55:49;49.78;;;15.57;;
6651;SDS011;3362;50.892;10.692;2022-12-01T12:58:17;33.25;;;13.43;;
6651;SDS011;3362;50.892;10.692;2022-12-01T13:00:47;44.28;;;14.73;;
6651;SDS011;3362;50.892;10.692;2022-12-01T13:03:16;45.85;;;14.32;;
6651;SDS011;3362;50.892;10.692;2022-12-01T13:05:44;42.42;;;13.38;;
6651;SDS011;3362;50.892;10.692;2022-12-01T13:08:15;43.25;;;15.98;;
6651;SDS011;3362;50.892;10.692;2022-12-01T13:10:45;36.95;;;13.07;;
6651;SDS011;3362;50.892;10.692;2022-12-01T13:13:17;41.38;;;12.98;;
6651;SDS011;3362;50.892;10.692;2022-12-01T13:15:45;40.50;;;14.77;;
6651;SDS011;3362;50.892;10.692;2022-12-01T13:18:15;37.63;;;15.18;;
6651;SDS011;3362;50.892;10.692;2022-12-01T13:20:44;39.30;;;14.68;;
6651;SDS011;3362;50.892;10.692;2022-12-01T13:23:11;46.35;;;17.30;;
6651;SDS011;3362;50.892;10.692;2022-12-01T13:25:39;31.33;;;12.80;;
6651;SDS011;3362;50.892;10.692;2022-12-01T13:28:11;37.60;;;15.18;;
6651;SDS011;3362;50.892;10.692;2022-12-01T13:30:40;39.22;;;15.10;;
6651;SDS011;3362;50.892;10.692;2022-12-01T13:33:12;38.58;;;12.63;;
6651;SDS011;3362;50.892;10.692;2022-12-01T13:35:40;33.13;;;13.85;;
6651;SDS011;3362;50.892;10.692;2022-12-01T13:43:53;43.70;;;14.80;;
6651;SDS011;3362;50.892;10.692;2022-12-01T13:46:21;36.42;;;13.85;;
6651;SDS011;3362;50.892;10.692;2022-12-01T13:48:49;42.85;;;14.10;;
6651;SDS011;3362;50.892;10.692;2022-12-01T13:51:16;42.85;;;14.27;;
6651;SDS011;3362;50.892;10.692;2022-12-01T13:53:53;36.75;;;14.02;;
6651;SDS011;3362;50.892;10.692;2022-12-01T13:56:24;41.80;;;14.95;;
6651;SDS011;3362;50.892;10.692;2022-12-01T13:58:53;39.50;;;15.25;;
6651;SDS011;3362;50.892;10.692;2022-12-01T14:04:17;50.00;;;16.95;;
6651;SDS011;3362;50.892;10.692;2022-12-01T14:06:47;35.63;;;14.98;;
6651;SDS011;3362;50.892;10.692;2022-12-01T14:09:22;40.28;;;16.50;;
6651;SDS011;3362;50.892;10.692;2022-12-01T14:11:53;39.97;;;15.50;;
6651;SDS011;3362;50.892;10.692;2022-12-01T14:14:22;48.47;;;14.70;;
6651;SDS011;3362;50.892;10.692;2022-12-01T14:16:51;39.38;;;14.30;;
6651;SDS011;3362;50.892;10.692;2022-12-01T14:19:28;45.67;;;14.60;;
6651;SDS011;3362;50.892;10.692;2022-12-01T14:21:55;40.05;;;16.45;;
6651;SDS011;3362;50.892;10.692;2022-12-01T14:24:23;39.95;;;14.70;;
6651;SDS011;3362;50.892;10.692;2022-12-01T14:26:51;45.53;;;14.18;;
6651;SDS011;3362;50.892;10.692;2022-12-01T14:29:27;36.60;;;13.15;;
6651;SDS011;3362;50.892;10.692;2022-12-01T14:34:51;36.28;;;14.32;;
6651;SDS011;3362;50.892;10.692;2022-12-01T14:37:19;40.15;;;16.17;;
6651;SDS011;3362;50.892;10.692;2022-12-01T14:39:46;47.35;;;15.48;;
6651;SDS011;3362;50.892;10.692;2022-12-01T14:42:18;41.55;;;14.20;;
6651;SDS011;3362;50.892;10.692;2022-12-01T14:45:20;39.17;;;13.45;;
6651;SDS011;3362;50.892;10.692;2022-12-01T14:47:48;34.97;;;13.23;;
6651;SDS011;3362;50.892;10.692;2022-12-01T14:50:19;42.95;;;14.32;;
6651;SDS011;3362;50.892;10.692;2022-12-01T14:52:48;34.75;;;12.18;;
6651;SDS011;3362;50.892;10.692;2022-12-01T14:55:18;29.33;;;12.95;;
6651;SDS011;3362;50.892;10.692;2022-12-01T14:57:45;48.63;;;15.35;;
6651;SDS011;3362;50.892;10.692;2022-12-01T15:00:13;35.47;;;13.38;;